TimeCST,TemperatureF,Dew PointF,Humidity,Sea Level PressureIn,VisibilityMPH,Wind Direction,Wind SpeedMPH,Gust SpeedMPH,PrecipitationIn,Events,Conditions,WindDirDegrees,DateUTC
12:53 AM,36.0,30.9,82,30.42,10.0,NNE,3.5,-,N/A,,Clear,20,2012-11-14 06:53:00
1:53 AM,35.1,30.0,82,30.42,10.0,NNE,5.8,-,N/A,,Clear,30,2012-11-14 07:53:00
2:53 AM,37.0,28.9,73,30.41,10.0,North,3.5,-,N/A,,Clear,10,2012-11-14 08:53:00
3:53 AM,34.0,28.9,82,30.41,10.0,Calm,Calm,-,N/A,,Clear,0,2012-11-14 09:53:00
4:53 AM,36.0,28.9,76,30.41,10.0,NNW,3.5,-,N/A,,Clear,330,2012-11-14 10:53:00
5:53 AM,34.0,30.9,89,30.43,10.0,NW,3.5,-,N/A,,Clear,320,2012-11-14 11:53:00
6:53 AM,36.0,30.0,79,30.43,10.0,WNW,3.5,-,N/A,,Clear,300,2012-11-14 12:53:00
7:53 AM,37.9,30.9,76,30.43,10.0,NNE,4.6,-,N/A,,Partly Cloudy,20,2012-11-14 13:53:00
8:53 AM,37.9,30.9,76,30.42,10.0,NE,4.6,-,N/A,,Mostly Cloudy,50,2012-11-14 14:53:00
9:53 AM,42.1,28.0,58,30.42,10.0,Variable,4.6,-,N/A,,Scattered Clouds,0,2012-11-14 15:53:00
10:53 AM,43.0,33.1,68,30.41,10.0,NNW,9.2,-,N/A,,Partly Cloudy,340,2012-11-14 16:53:00
11:53 AM,46.9,32.0,56,30.39,10.0,North,9.2,-,N/A,,Clear,350,2012-11-14 17:53:00
12:53 PM,48.0,32.0,54,30.37,10.0,NNE,9.2,-,N/A,,Clear,20,2012-11-14 18:53:00
1:53 PM,48.9,33.1,54,30.35,10.0,NNE,12.7,-,N/A,,Clear,20,2012-11-14 19:53:00
2:53 PM,48.9,34.0,56,30.34,10.0,NNE,10.4,-,N/A,,Clear,30,2012-11-14 20:53:00
3:53 PM,48.0,35.1,61,30.35,10.0,NNE,8.1,-,N/A,,Clear,20,2012-11-14 21:53:00
4:53 PM,45.0,35.1,68,30.33,10.0,North,8.1,-,N/A,,Clear,360,2012-11-14 22:53:00
5:53 PM,41.0,34.0,76,30.35,10.0,North,4.6,-,N/A,,Clear,10,2012-11-14 23:53:00
6:53 PM,39.9,33.1,77,30.35,10.0,NNE,4.6,-,N/A,,Clear,20,2012-11-15 00:53:00
7:53 PM,39.0,33.1,79,30.35,10.0,North,4.6,-,N/A,,Clear,10,2012-11-15 01:53:00
8:53 PM,37.9,33.1,83,30.35,10.0,North,3.5,-,N/A,,Clear,10,2012-11-15 02:53:00
9:53 PM,37.0,33.1,86,30.34,10.0,Calm,Calm,-,N/A,,Clear,0,2012-11-15 03:53:00
10:53 PM,36.0,33.1,89,30.33,10.0,NW,3.5,-,N/A,,Clear,320,2012-11-15 04:53:00
11:53 PM,35.1,33.1,92,30.33,10.0,NW,3.5,-,N/A,,Clear,320,2012-11-15 05:53:00